sensor_id;sensor_type;location;lat;lon;timestamp;temperature;humidity
19868;DHT22;10096;51.112;6.776;2024-03-02T00:01:58;8.90;99.90
19868;DHT22;10096;51.112;6.776;2024-03-02T00:04:25;9.00;99.90
19868;DHT22;10096;51.112;6.776;2024-03-02T00:06:56;9.20;99.90
19868;DHT22;10096;51.112;6.776;2024-03-02T00:09:28;9.30;99.90
19868;DHT22;10096;51.112;6.776;2024-03-02T00:11:58;9.00;99.90
19868;DHT22;10096;51.112;6.776;2024-03-02T00:14:27;9.20;99.90
19868;DHT22;10096;51.112;6.776;2024-03-02T00:17:01;9.20;99.90
19868;DHT22;10096;51.112;6.776;2024-03-02T00:19:28;9.10;99.90
19868;DHT22;10096;51.112;6.776;2024-03-02T00:22:00;9.30;99.90
19868;DHT22;10096;51.112;6.776;2024-03-02T00:24:34;8.90;99.90
19868;DHT22;10096;51.112;6.776;2024-03-02T00:27:04;9.30;99.90
19868;DHT22;10096;51.112;6.776;2024-03-02T00:29:32;9.10;99.90
19868;DHT22;10096;51.112;6.776;2024-03-02T00:32:03;9.30;99.90
19868;DHT22;10096;51.112;6.776;2024-03-02T00:34:40;9.20;99.90
19868;DHT22;10096;51.112;6.776;2024-03-02T00:37:16;9.20;99.90
19868;DHT22;10096;51.112;6.776;2024-03-02T00:39:48;9.00;99.90
19868;DHT22;10096;51.112;6.776;2024-03-02T00:42:16;9.30;99.90
19868;DHT22;10096;51.112;6.776;2024-03-02T00:44:45;9.10;99.90
19868;DHT22;10096;51.112;6.776;2024-03-02T00:47:16;9.20;99.90
19868;DHT22;10096;51.112;6.776;2024-03-02T00:49:48;9.20;99.90
19868;DHT22;10096;51.112;6.776;2024-03-02T00:52:16;9.20;99.90
19868;DHT22;10096;51.112;6.776;2024-03-02T00:54:47;9.20;99.90
19868;DHT22;10096;51.112;6.776;2024-03-02T00:57:14;9.00;99.90
19868;DHT22;10096;51.112;6.776;2024-03-02T00:59:45;9.10;99.90
19868;DHT22;10096;51.112;6.776;2024-03-02T01:02:12;9.20;99.90
19868;DHT22;10096;51.112;6.776;2024-03-02T01:04:40;9.20;99.90
19868;DHT22;10096;51.112;6.776;2024-03-02T01:07:07;9.30;99.20
19868;DHT22;10096;51.112;6.776;2024-03-02T01:09:37;9.30;99.90
19868;DHT22;10096;51.112;6.776;2024-03-02T01:12:07;9.30;99.90
19868;DHT22;10096;51.112;6.776;2024-03-02T01:14:33;9.30;99.90
19868;DHT22;10096;51.112;6.776;2024-03-02T01:17:00;9.20;99.40
19868;DHT22;10096;51.112;6.776;2024-03-02T01:19:29;9.20;99.00
19868;DHT22;10096;51.112;6.776;2024-03-02T01:21:57;9.30;99.40
19868;DHT22;10096;51.112;6.776;2024-03-02T01:24:24;9.10;99.90
19868;DHT22;10096;51.112;6.776;2024-03-02T01:26:51;9.20;99.90
19868;DHT22;10096;51.112;6.776;2024-03-02T01:29:18;9.00;99.90
19868;DHT22;10096;51.112;6.776;2024-03-02T01:31:47;9.10;99.80
19868;DHT22;10096;51.112;6.776;2024-03-02T01:34:14;9.20;97.80
19868;DHT22;10096;51.112;6.776;2024-03-02T01:36:41;9.10;99.90
19868;DHT22;10096;51.112;6.776;2024-03-02T01:39:09;9.30;99.90
19868;DHT22;10096;51.112;6.776;2024-03-02T01:41:36;9.30;99.80
19868;DHT22;10096;51.112;6.776;2024-03-02T01:44:04;9.10;99.90
19868;DHT22;10096;51.112;6.776;2024-03-02T01:46:31;9.10;99.90
19868;DHT22;10096;51.112;6.776;2024-03-02T01:48:58;9.10;99.80
19868;DHT22;10096;51.112;6.776;2024-03-02T01:51:25;9.10;99.60
19868;DHT22;10096;51.112;6.776;2024-03-02T01:53:52;9.30;99.90
19868;DHT22;10096;51.112;6.776;2024-03-02T01:56:21;9.10;98.90
19868;DHT22;10096;51.112;6.776;2024-03-02T01:58:50;9.10;98.80
19868;DHT22;10096;51.112;6.776;2024-03-02T02:01:35;9.20;97.40
19868;DHT22;10096;51.112;6.776;2024-03-02T02:04:06;9.30;99.10
19868;DHT22;10096;51.112;6.776;2024-03-02T02:06:32;9.40;99.90
19868;DHT22;10096;51.112;6.776;2024-03-02T02:09:01;9.20;96.90
19868;DHT22;10096;51.112;6.776;2024-03-02T02:11:37;9.30;97.30
19868;DHT22;10096;51.112;6.776;2024-03-02T02:14:06;9.40;95.70
19868;DHT22;10096;51.112;6.776;2024-03-02T02:16:37;9.40;97.10
19868;DHT22;10096;51.112;6.776;2024-03-02T02:19:13;9.30;95.80
19868;DHT22;10096;51.112;6.776;2024-03-02T02:21:43;9.20;97.00
19868;DHT22;10096;51.112;6.776;2024-03-02T02:24:10;9.10;99.60
19868;DHT22;10096;51.112;6.776;2024-03-02T02:26:38;9.10;99.90
19868;DHT22;10096;51.112;6.776;2024-03-02T02:29:05;9.10;99.70
19868;DHT22;10096;51.112;6.776;2024-03-02T02:31:42;9.20;99.90
19868;DHT22;10096;51.112;6.776;2024-03-02T02:34:09;8.90;99.90
19868;DHT22;10096;51.112;6.776;2024-03-02T02:36:39;9.20;99.10
19868;DHT22;10096;51.112;6.776;2024-03-02T02:39:14;9.60;99.60
19868;DHT22;10096;51.112;6.776;2024-03-02T02:41:42;9.20;99.90
19868;DHT22;10096;51.112;6.776;2024-03-02T02:44:09;9.00;99.20
19868;DHT22;10096;51.112;6.776;2024-03-02T02:46:40;9.30;99.90
19868;DHT22;10096;51.112;6.776;2024-03-02T02:49:08;9.40;98.20
19868;DHT22;10096;51.112;6.776;2024-03-02T02:51:36;9.20;99.90
19868;DHT22;10096;51.112;6.776;2024-03-02T02:54:03;9.40;99.10
19868;DHT22;10096;51.112;6.776;2024-03-02T02:56:36;9.40;99.70
19868;DHT22;10096;51.112;6.776;2024-03-02T02:59:03;9.30;99.70
19868;DHT22;10096;51.112;6.776;2024-03-02T03:01:33;9.10;99.90
19868;DHT22;10096;51.112;6.776;2024-03-02T03:04:00;9.10;99.90
19868;DHT22;10096;51.112;6.776;2024-03-02T03:06:28;9.00;99.90
19868;DHT22;10096;51.112;6.776;2024-03-02T03:08:58;9.10;99.90
19868;DHT22;10096;51.112;6.776;2024-03-02T03:11:31;9.10;99.90
19868;DHT22;10096;51.112;6.776;2024-03-02T03:13:58;9.20;99.90
19868;DHT22;10096;51.112;6.776;2024-03-02T03:16:27;9.10;99.90
19868;DHT22;10096;51.112;6.776;2024-03-02T03:18:57;9.10;99.90
19868;DHT22;10096;51.112;6.776;2024-03-02T03:21:23;9.20;99.90
19868;DHT22;10096;51.112;6.776;2024-03-02T03:23:53;9.40;99.90
19868;DHT22;10096;51.112;6.776;2024-03-02T03:26:23;9.30;99.90
19868;DHT22;10096;51.112;6.776;2024-03-02T03:28:56;9.00;99.90
19868;DHT22;10096;51.112;6.776;2024-03-02T03:31:23;9.30;99.90
19868;DHT22;10096;51.112;6.776;2024-03-02T03:33:50;9.10;99.90
19868;DHT22;10096;51.112;6.776;2024-03-02T03:36:17;9.00;99.90
19868;DHT22;10096;51.112;6.776;2024-03-02T03:38:44;9.30;99.90
19868;DHT22;10096;51.112;6.776;2024-03-02T03:41:16;9.00;99.90
19868;DHT22;10096;51.112;6.776;2024-03-02T03:43:43;9.00;99.90
19868;DHT22;10096;51.112;6.776;2024-03-02T03:46:20;9.00;99.90
19868;DHT22;10096;51.112;6.776;2024-03-02T03:48:47;9.00;99.90
19868;DHT22;10096;51.112;6.776;2024-03-02T03:51:15;8.90;99.90
19868;DHT22;10096;51.112;6.776;2024-03-02T03:53:46;9.10;99.90
19868;DHT22;10096;51.112;6.776;2024-03-02T03:56:13;8.90;99.90
19868;DHT22;10096;51.112;6.776;2024-03-02T03:58:40;8.90;99.90
19868;DHT22;10096;51.112;6.776;2024-03-02T04:01:22;9.00;99.90
19868;DHT22;10096;51.112;6.776;2024-03-02T04:03:49;8.70;99.90
19868;DHT22;10096;51.112;6.776;2024-03-02T04:06:16;8.70;99.90
19868;DHT22;10096;51.112;6.776;2024-03-02T04:08:44;8.70;99.90
19868;DHT22;10096;51.112;6.776;2024-03-02T04:11:10;8.60;99.90
19868;DHT22;10096;51.112;6.776;2024-03-02T04:13:42;8.70;99.90
19868;DHT22;10096;51.112;6.776;2024-03-02T04:16:20;8.60;99.90
19868;DHT22;10096;51.112;6.776;2024-03-02T04:18:46;8.40;99.90
19868;DHT22;10096;51.112;6.776;2024-03-02T04:21:13;8.30;99.90
19868;DHT22;10096;51.112;6.776;2024-03-02T04:23:43;8.30;99.90
19868;DHT22;10096;51.112;6.776;2024-03-02T04:26:15;8.30;99.90
19868;DHT22;10096;51.112;6.776;2024-03-02T04:28:48;8.40;99.90
19868;DHT22;10096;51.112;6.776;2024-03-02T04:34:15;8.10;99.90
19868;DHT22;10096;51.112;6.776;2024-03-02T04:36:43;8.00;99.90
19868;DHT22;10096;51.112;6.776;2024-03-02T04:39:15;8.00;99.90
19868;DHT22;10096;51.112;6.776;2024-03-02T04:41:42;7.90;99.90
19868;DHT22;10096;51.112;6.776;2024-03-02T04:44:09;7.90;99.90
19868;DHT22;10096;51.112;6.776;2024-03-02T04:46:36;7.90;99.90
19868;DHT22;10096;51.112;6.776;2024-03-02T04:49:02;7.90;99.90
19868;DHT22;10096;51.112;6.776;2024-03-02T04:51:35;7.80;99.90
19868;DHT22;10096;51.112;6.776;2024-03-02T04:54:07;7.80;99.90
19868;DHT22;10096;51.112;6.776;2024-03-02T04:56:37;7.80;99.90
19868;DHT22;10096;51.112;6.776;2024-03-02T04:59:31;7.70;99.90
19868;DHT22;10096;51.112;6.776;2024-03-02T05:02:00;7.80;99.90
19868;DHT22;10096;51.112;6.776;2024-03-02T05:04:26;7.60;99.90
19868;DHT22;10096;51.112;6.776;2024-03-02T05:07:25;7.60;99.90
19868;DHT22;10096;51.112;6.776;2024-03-02T05:09:58;7.50;99.90
19868;DHT22;10096;51.112;6.776;2024-03-02T05:12:25;7.80;99.90
19868;DHT22;10096;51.112;6.776;2024-03-02T05:15:16;7.80;99.90
19868;DHT22;10096;51.112;6.776;2024-03-02T05:17:47;7.70;99.90
19868;DHT22;10096;51.112;6.776;2024-03-02T05:20:18;7.70;99.90
19868;DHT22;10096;51.112;6.776;2024-03-02T05:22:51;7.70;99.90
19868;DHT22;10096;51.112;6.776;2024-03-02T05:25:24;8.00;99.90
19868;DHT22;10096;51.112;6.776;2024-03-02T05:27:57;7.70;99.90
19868;DHT22;10096;51.112;6.776;2024-03-02T05:30:24;7.80;99.90
19868;DHT22;10096;51.112;6.776;2024-03-02T05:32:51;7.70;99.90
19868;DHT22;10096;51.112;6.776;2024-03-02T05:35:23;7.80;99.90
19868;DHT22;10096;51.112;6.776;2024-03-02T05:37:58;7.70;99.90
19868;DHT22;10096;51.112;6.776;2024-03-02T05:40:27;7.80;99.90
19868;DHT22;10096;51.112;6.776;2024-03-02T05:42:55;7.70;99.90
19868;DHT22;10096;51.112;6.776;2024-03-02T05:45:27;7.70;99.90
19868;DHT22;10096;51.112;6.776;2024-03-02T05:47:55;7.60;99.90
19868;DHT22;10096;51.112;6.776;2024-03-02T05:50:27;7.60;99.90
19868;DHT22;10096;51.112;6.776;2024-03-02T05:52:59;7.60;99.90
19868;DHT22;10096;51.112;6.776;2024-03-02T05:55:35;7.50;99.90
19868;DHT22;10096;51.112;6.776;2024-03-02T05:58:07;7.20;99.90
19868;DHT22;10096;51.112;6.776;2024-03-02T06:00:51;7.50;99.90
19868;DHT22;10096;51.112;6.776;2024-03-02T06:03:20;7.40;99.90
19868;DHT22;10096;51.112;6.776;2024-03-02T06:05:50;7.50;99.90
19868;DHT22;10096;51.112;6.776;2024-03-02T06:08:19;7.50;99.90
19868;DHT22;10096;51.112;6.776;2024-03-02T06:10:46;7.50;99.90
19868;DHT22;10096;51.112;6.776;2024-03-02T06:13:18;7.50;99.90
19868;DHT22;10096;51.112;6.776;2024-03-02T06:15:45;7.70;99.90
19868;DHT22;10096;51.112;6.776;2024-03-02T06:18:12;7.60;99.90
19868;DHT22;10096;51.112;6.776;2024-03-02T06:20:39;7.60;99.90
19868;DHT22;10096;51.112;6.776;2024-03-02T06:23:06;7.90;99.90
19868;DHT22;10096;51.112;6.776;2024-03-02T06:25:35;7.70;99.90
19868;DHT22;10096;51.112;6.776;2024-03-02T06:28:02;7.80;99.90
19868;DHT22;10096;51.112;6.776;2024-03-02T06:30:44;7.90;99.90
19868;DHT22;10096;51.112;6.776;2024-03-02T06:33:11;7.80;99.90
19868;DHT22;10096;51.112;6.776;2024-03-02T06:35:43;7.90;99.90
19868;DHT22;10096;51.112;6.776;2024-03-02T06:38:10;8.10;99.90
19868;DHT22;10096;51.112;6.776;2024-03-02T06:40:39;7.90;99.90
19868;DHT22;10096;51.112;6.776;2024-03-02T06:43:06;8.00;99.90
19868;DHT22;10096;51.112;6.776;2024-03-02T06:45:33;8.10;99.90
19868;DHT22;10096;51.112;6.776;2024-03-02T06:48:03;8.20;99.90
19868;DHT22;10096;51.112;6.776;2024-03-02T06:50:32;8.40;99.90
19868;DHT22;10096;51.112;6.776;2024-03-02T06:53:10;8.40;99.90
19868;DHT22;10096;51.112;6.776;2024-03-02T06:55:36;8.40;99.90
19868;DHT22;10096;51.112;6.776;2024-03-02T06:58:05;8.50;99.90
19868;DHT22;10096;51.112;6.776;2024-03-02T07:00:37;8.50;99.90
19868;DHT22;10096;51.112;6.776;2024-03-02T07:03:10;8.60;99.90
19868;DHT22;10096;51.112;6.776;2024-03-02T07:05:39;8.40;99.90
19868;DHT22;10096;51.112;6.776;2024-03-02T07:08:11;8.40;99.90
19868;DHT22;10096;51.112;6.776;2024-03-02T07:10:48;8.40;99.90
19868;DHT22;10096;51.112;6.776;2024-03-02T07:13:30;8.50;99.90
19868;DHT22;10096;51.112;6.776;2024-03-02T07:15:57;8.50;99.90
19868;DHT22;10096;51.112;6.776;2024-03-02T07:18:49;9.70;99.90
19868;DHT22;10096;51.112;6.776;2024-03-02T07:21:30;10.60;99.90
19868;DHT22;10096;51.112;6.776;2024-03-02T07:23:58;10.30;99.90
19868;DHT22;10096;51.112;6.776;2024-03-02T07:26:28;10.30;99.90
19868;DHT22;10096;51.112;6.776;2024-03-02T07:29:04;10.10;99.90
19868;DHT22;10096;51.112;6.776;2024-03-02T07:31:33;10.10;99.90
19868;DHT22;10096;51.112;6.776;2024-03-02T07:34:01;11.10;99.90
19868;DHT22;10096;51.112;6.776;2024-03-02T07:36:28;11.80;93.20
19868;DHT22;10096;51.112;6.776;2024-03-02T07:38:54;11.90;82.50
19868;DHT22;10096;51.112;6.776;2024-03-02T07:41:22;11.80;86.60
19868;DHT22;10096;51.112;6.776;2024-03-02T07:43:49;11.50;89.60
19868;DHT22;10096;51.112;6.776;2024-03-02T07:46:19;11.90;84.00
19868;DHT22;10096;51.112;6.776;2024-03-02T07:48:50;12.60;74.50
19868;DHT22;10096;51.112;6.776;2024-03-02T07:51:22;12.50;66.80
19868;DHT22;10096;51.112;6.776;2024-03-02T07:53:50;12.40;68.00
19868;DHT22;10096;51.112;6.776;2024-03-02T07:56:21;12.80;59.10
19868;DHT22;10096;51.112;6.776;2024-03-02T07:58:49;12.60;60.30
19868;DHT22;10096;51.112;6.776;2024-03-02T08:01:30;13.00;56.80
19868;DHT22;10096;51.112;6.776;2024-03-02T08:04:01;13.40;52.70
19868;DHT22;10096;51.112;6.776;2024-03-02T08:06:34;13.50;47.90
19868;DHT22;10096;51.112;6.776;2024-03-02T08:09:06;13.40;44.40
19868;DHT22;10096;51.112;6.776;2024-03-02T08:11:35;13.10;43.30
19868;DHT22;10096;51.112;6.776;2024-03-02T08:14:12;13.40;43.90
19868;DHT22;10096;51.112;6.776;2024-03-02T08:16:45;14.00;41.90
19868;DHT22;10096;51.112;6.776;2024-03-02T08:19:15;13.90;42.80
19868;DHT22;10096;51.112;6.776;2024-03-02T08:21:47;14.10;40.10
19868;DHT22;10096;51.112;6.776;2024-03-02T08:24:13;14.40;34.70
19868;DHT22;10096;51.112;6.776;2024-03-02T08:26:43;14.30;34.50
19868;DHT22;10096;51.112;6.776;2024-03-02T08:29:12;14.50;37.00
19868;DHT22;10096;51.112;6.776;2024-03-02T08:31:40;14.40;33.70
19868;DHT22;10096;51.112;6.776;2024-03-02T08:34:18;13.30;38.10
19868;DHT22;10096;51.112;6.776;2024-03-02T08:37:00;12.50;38.80
19868;DHT22;10096;51.112;6.776;2024-03-02T08:39:29;12.30;43.00
19868;DHT22;10096;51.112;6.776;2024-03-02T08:42:00;12.10;46.50
19868;DHT22;10096;51.112;6.776;2024-03-02T08:44:30;11.60;47.10
19868;DHT22;10096;51.112;6.776;2024-03-02T08:47:19;11.40;51.90
19868;DHT22;10096;51.112;6.776;2024-03-02T08:49:53;11.50;52.00
19868;DHT22;10096;51.112;6.776;2024-03-02T08:52:22;11.40;58.00
19868;DHT22;10096;51.112;6.776;2024-03-02T08:54:49;11.50;53.00
19868;DHT22;10096;51.112;6.776;2024-03-02T08:57:17;11.60;50.80
19868;DHT22;10096;51.112;6.776;2024-03-02T08:59:44;11.80;50.30
19868;DHT22;10096;51.112;6.776;2024-03-02T09:02:14;11.90;53.00
19868;DHT22;10096;51.112;6.776;2024-03-02T09:04:50;12.00;58.10
19868;DHT22;10096;51.112;6.776;2024-03-02T09:07:22;11.90;52.60
19868;DHT22;10096;51.112;6.776;2024-03-02T09:09:49;12.20;50.40
19868;DHT22;10096;51.112;6.776;2024-03-02T09:12:16;12.10;49.10
19868;DHT22;10096;51.112;6.776;2024-03-02T09:14:43;12.30;50.30
19868;DHT22;10096;51.112;6.776;2024-03-02T09:17:10;12.30;48.60
19868;DHT22;10096;51.112;6.776;2024-03-02T09:19:37;12.40;53.30
19868;DHT22;10096;51.112;6.776;2024-03-02T09:22:05;12.40;48.70
19868;DHT22;10096;51.112;6.776;2024-03-02T09:24:34;12.40;71.50
19868;DHT22;10096;51.112;6.776;2024-03-02T09:27:01;12.50;50.80
19868;DHT22;10096;51.112;6.776;2024-03-02T09:29:28;12.30;46.20
19868;DHT22;10096;51.112;6.776;2024-03-02T09:31:56;12.30;48.20
19868;DHT22;10096;51.112;6.776;2024-03-02T09:34:25;12.40;44.10
19868;DHT22;10096;51.112;6.776;2024-03-02T09:36:52;12.40;45.40
19868;DHT22;10096;51.112;6.776;2024-03-02T09:39:20;12.80;39.00
19868;DHT22;10096;51.112;6.776;2024-03-02T09:41:52;12.50;38.40
19868;DHT22;10096;51.112;6.776;2024-03-02T09:44:21;12.60;42.90
19868;DHT22;10096;51.112;6.776;2024-03-02T09:47:00;12.80;43.20
19868;DHT22;10096;51.112;6.776;2024-03-02T09:49:27;12.80;42.80
19868;DHT22;10096;51.112;6.776;2024-03-02T09:51:59;12.80;38.20
19868;DHT22;10096;51.112;6.776;2024-03-02T09:54:31;12.70;35.50
19868;DHT22;10096;51.112;6.776;2024-03-02T09:57:02;12.80;36.10
19868;DHT22;10096;51.112;6.776;2024-03-02T09:59:30;12.80;33.50
19868;DHT22;10096;51.112;6.776;2024-03-02T10:01:58;13.00;36.10
19868;DHT22;10096;51.112;6.776;2024-03-02T10:04:26;13.00;36.90
19868;DHT22;10096;51.112;6.776;2024-03-02T10:07:13;13.10;42.40
19868;DHT22;10096;51.112;6.776;2024-03-02T10:09:41;13.20;30.70
19868;DHT22;10096;51.112;6.776;2024-03-02T10:12:12;13.00;27.80
19868;DHT22;10096;51.112;6.776;2024-03-02T10:14:39;13.00;27.00
19868;DHT22;10096;51.112;6.776;2024-03-02T10:17:08;13.10;28.00
19868;DHT22;10096;51.112;6.776;2024-03-02T10:19:38;12.90;30.40
19868;DHT22;10096;51.112;6.776;2024-03-02T10:22:06;13.10;29.70
19868;DHT22;10096;51.112;6.776;2024-03-02T10:24:38;13.10;27.80
19868;DHT22;10096;51.112;6.776;2024-03-02T10:27:17;13.30;26.70
19868;DHT22;10096;51.112;6.776;2024-03-02T10:29:46;13.20;24.70
19868;DHT22;10096;51.112;6.776;2024-03-02T10:32:13;13.00;24.90
19868;DHT22;10096;51.112;6.776;2024-03-02T10:34:50;13.00;26.70
19868;DHT22;10096;51.112;6.776;2024-03-02T10:37:17;13.20;28.00
19868;DHT22;10096;51.112;6.776;2024-03-02T10:39:51;13.00;24.80
19868;DHT22;10096;51.112;6.776;2024-03-02T10:42:27;13.00;23.20
19868;DHT22;10096;51.112;6.776;2024-03-02T10:44:56;13.10;27.60
19868;DHT22;10096;51.112;6.776;2024-03-02T10:47:26;13.20;28.90
19868;DHT22;10096;51.112;6.776;2024-03-02T10:49:56;13.30;26.20
19868;DHT22;10096;51.112;6.776;2024-03-02T10:52:34;13.40;26.40
19868;DHT22;10096;51.112;6.776;2024-03-02T10:55:07;13.20;20.90
19868;DHT22;10096;51.112;6.776;2024-03-02T10:57:42;13.50;20.40
19868;DHT22;10096;51.112;6.776;2024-03-02T11:00:33;13.70;22.20
19868;DHT22;10096;51.112;6.776;2024-03-02T11:03:05;13.50;22.60
19868;DHT22;10096;51.112;6.776;2024-03-02T11:05:38;13.70;23.90
19868;DHT22;10096;51.112;6.776;2024-03-02T11:08:07;13.70;32.50
19868;DHT22;10096;51.112;6.776;2024-03-02T11:10:41;13.90;30.20
19868;DHT22;10096;51.112;6.776;2024-03-02T11:13:15;13.60;32.60
19868;DHT22;10096;51.112;6.776;2024-03-02T11:15:44;13.60;31.00
19868;DHT22;10096;51.112;6.776;2024-03-02T11:18:12;13.80;35.30
19868;DHT22;10096;51.112;6.776;2024-03-02T11:20:51;13.60;34.60
19868;DHT22;10096;51.112;6.776;2024-03-02T11:23:36;13.80;26.60
19868;DHT22;10096;51.112;6.776;2024-03-02T11:26:22;13.50;27.60
19868;DHT22;10096;51.112;6.776;2024-03-02T11:28:51;13.50;26.90
19868;DHT22;10096;51.112;6.776;2024-03-02T11:31:18;13.60;30.40
19868;DHT22;10096;51.112;6.776;2024-03-02T11:33:45;13.60;29.30
19868;DHT22;10096;51.112;6.776;2024-03-02T11:36:15;13.60;22.00
19868;DHT22;10096;51.112;6.776;2024-03-02T11:38:52;13.70;26.70
19868;DHT22;10096;51.112;6.776;2024-03-02T11:41:19;13.60;24.60
19868;DHT22;10096;51.112;6.776;2024-03-02T11:43:47;13.90;26.80
19868;DHT22;10096;51.112;6.776;2024-03-02T11:46:15;13.80;25.30
19868;DHT22;10096;51.112;6.776;2024-03-02T11:48:43;13.90;26.80
19868;DHT22;10096;51.112;6.776;2024-03-02T11:51:11;14.00;23.60
19868;DHT22;10096;51.112;6.776;2024-03-02T11:53:41;14.00;21.10
19868;DHT22;10096;51.112;6.776;2024-03-02T11:56:15;14.20;17.50
19868;DHT22;10096;51.112;6.776;2024-03-02T11:58:44;14.40;19.10
19868;DHT22;10096;51.112;6.776;2024-03-02T12:01:11;14.40;23.50
19868;DHT22;10096;51.112;6.776;2024-03-02T12:03:41;14.00;25.30
19868;DHT22;10096;51.112;6.776;2024-03-02T12:06:18;13.90;22.10
19868;DHT22;10096;51.112;6.776;2024-03-02T12:08:52;13.80;20.10
19868;DHT22;10096;51.112;6.776;2024-03-02T12:11:20;13.70;19.00
19868;DHT22;10096;51.112;6.776;2024-03-02T12:13:56;13.90;24.00
19868;DHT22;10096;51.112;6.776;2024-03-02T12:16:27;13.70;25.30
19868;DHT22;10096;51.112;6.776;2024-03-02T12:18:57;13.70;23.30
19868;DHT22;10096;51.112;6.776;2024-03-02T12:21:30;14.00;26.00
19868;DHT22;10096;51.112;6.776;2024-03-02T12:23:58;13.90;21.10
19868;DHT22;10096;51.112;6.776;2024-03-02T12:26:34;13.90;21.20
19868;DHT22;10096;51.112;6.776;2024-03-02T12:29:04;14.00;24.10
19868;DHT22;10096;51.112;6.776;2024-03-02T12:31:31;14.00;21.30
19868;DHT22;10096;51.112;6.776;2024-03-02T12:34:00;14.30;26.20
19868;DHT22;10096;51.112;6.776;2024-03-02T12:36:27;14.30;21.90
19868;DHT22;10096;51.112;6.776;2024-03-02T12:38:56;14.20;21.00
19868;DHT22;10096;51.112;6.776;2024-03-02T12:41:31;14.30;23.10
19868;DHT22;10096;51.112;6.776;2024-03-02T12:43:58;14.20;23.80
19868;DHT22;10096;51.112;6.776;2024-03-02T12:46:25;14.60;25.40
19868;DHT22;10096;51.112;6.776;2024-03-02T12:48:55;14.40;24.00
19868;DHT22;10096;51.112;6.776;2024-03-02T12:51:36;14.40;22.20
19868;DHT22;10096;51.112;6.776;2024-03-02T12:54:10;14.50;37.40
19868;DHT22;10096;51.112;6.776;2024-03-02T12:56:38;14.20;22.30
19868;DHT22;10096;51.112;6.776;2024-03-02T12:59:05;14.20;23.90
19868;DHT22;10096;51.112;6.776;2024-03-02T13:01:36;14.10;25.80
19868;DHT22;10096;51.112;6.776;2024-03-02T13:04:09;14.10;28.10
19868;DHT22;10096;51.112;6.776;2024-03-02T13:06:48;14.10;26.40
19868;DHT22;10096;51.112;6.776;2024-03-02T13:09:17;14.10;30.40
19868;DHT22;10096;51.112;6.776;2024-03-02T13:11:48;14.10;27.20
19868;DHT22;10096;51.112;6.776;2024-03-02T13:14:22;14.00;25.70
19868;DHT22;10096;51.112;6.776;2024-03-02T13:16:53;14.00;27.70
19868;DHT22;10096;51.112;6.776;2024-03-02T13:19:29;13.70;25.10
19868;DHT22;10096;51.112;6.776;2024-03-02T13:22:09;14.00;22.70
19868;DHT22;10096;51.112;6.776;2024-03-02T13:27:47;14.00;23.00
19868;DHT22;10096;51.112;6.776;2024-03-02T13:30:14;14.20;23.10
19868;DHT22;10096;51.112;6.776;2024-03-02T13:32:41;14.20;24.40
19868;DHT22;10096;51.112;6.776;2024-03-02T13:35:08;14.30;25.70
19868;DHT22;10096;51.112;6.776;2024-03-02T13:37:39;14.40;25.90
19868;DHT22;10096;51.112;6.776;2024-03-02T13:40:08;14.30;22.50
19868;DHT22;10096;51.112;6.776;2024-03-02T13:42:39;14.30;20.40
19868;DHT22;10096;51.112;6.776;2024-03-02T13:45:16;14.30;21.40
19868;DHT22;10096;51.112;6.776;2024-03-02T13:47:48;14.20;21.70
19868;DHT22;10096;51.112;6.776;2024-03-02T13:50:35;14.10;22.00
19868;DHT22;10096;51.112;6.776;2024-03-02T13:53:04;14.30;26.60
19868;DHT22;10096;51.112;6.776;2024-03-02T13:55:32;14.10;24.10
19868;DHT22;10096;51.112;6.776;2024-03-02T13:57:59;14.40;24.10
19868;DHT22;10096;51.112;6.776;2024-03-02T14:00:26;14.10;27.70
19868;DHT22;10096;51.112;6.776;2024-03-02T14:02:56;14.10;27.80
19868;DHT22;10096;51.112;6.776;2024-03-02T14:05:26;14.30;27.80
19868;DHT22;10096;51.112;6.776;2024-03-02T14:07:53;14.20;21.50
19868;DHT22;10096;51.112;6.776;2024-03-02T14:10:24;14.20;22.10
19868;DHT22;10096;51.112;6.776;2024-03-02T14:12:59;14.30;21.20
19868;DHT22;10096;51.112;6.776;2024-03-02T14:15:26;14.30;21.50
19868;DHT22;10096;51.112;6.776;2024-03-02T14:17:57;14.30;22.10
19868;DHT22;10096;51.112;6.776;2024-03-02T14:20:24;14.40;21.80
19868;DHT22;10096;51.112;6.776;2024-03-02T14:22:59;14.40;23.50
19868;DHT22;10096;51.112;6.776;2024-03-02T14:25:43;14.30;21.90
19868;DHT22;10096;51.112;6.776;2024-03-02T14:28:10;14.30;20.90
19868;DHT22;10096;51.112;6.776;2024-03-02T14:30:42;14.30;20.30
19868;DHT22;10096;51.112;6.776;2024-03-02T14:33:31;14.40;17.30
19868;DHT22;10096;51.112;6.776;2024-03-02T14:36:07;14.50;19.40
19868;DHT22;10096;51.112;6.776;2024-03-02T14:38:40;14.50;17.50
19868;DHT22;10096;51.112;6.776;2024-03-02T14:41:09;14.80;19.60
19868;DHT22;10096;51.112;6.776;2024-03-02T14:43:36;14.60;18.60
19868;DHT22;10096;51.112;6.776;2024-03-02T14:46:04;14.50;19.90
19868;DHT22;10096;51.112;6.776;2024-03-02T14:48:34;14.50;17.40
19868;DHT22;10096;51.112;6.776;2024-03-02T14:51:04;14.30;15.80
19868;DHT22;10096;51.112;6.776;2024-03-02T14:53:32;14.40;17.20
19868;DHT22;10096;51.112;6.776;2024-03-02T14:55:58;14.50;18.00
19868;DHT22;10096;51.112;6.776;2024-03-02T14:58:28;14.70;18.30
19868;DHT22;10096;51.112;6.776;2024-03-02T15:01:01;14.70;17.40
19868;DHT22;10096;51.112;6.776;2024-03-02T15:03:28;14.70;16.30
19868;DHT22;10096;51.112;6.776;2024-03-02T15:05:59;14.70;17.70
19868;DHT22;10096;51.112;6.776;2024-03-02T15:08:29;15.10;17.10
19868;DHT22;10096;51.112;6.776;2024-03-02T15:10:56;14.80;19.50
19868;DHT22;10096;51.112;6.776;2024-03-02T15:13:37;15.00;16.20
19868;DHT22;10096;51.112;6.776;2024-03-02T15:16:06;14.90;16.80
19868;DHT22;10096;51.112;6.776;2024-03-02T15:18:33;15.00;15.70
19868;DHT22;10096;51.112;6.776;2024-03-02T15:21:02;14.90;15.20
19868;DHT22;10096;51.112;6.776;2024-03-02T15:23:31;15.10;18.30
19868;DHT22;10096;51.112;6.776;2024-03-02T15:25:59;14.80;14.80
19868;DHT22;10096;51.112;6.776;2024-03-02T15:28:27;14.70;16.10
19868;DHT22;10096;51.112;6.776;2024-03-02T15:30:55;14.60;16.60
19868;DHT22;10096;51.112;6.776;2024-03-02T15:33:30;14.60;16.40
19868;DHT22;10096;51.112;6.776;2024-03-02T15:35:58;14.70;17.80
19868;DHT22;10096;51.112;6.776;2024-03-02T15:38:26;14.60;13.30
19868;DHT22;10096;51.112;6.776;2024-03-02T15:41:02;14.80;16.20
19868;DHT22;10096;51.112;6.776;2024-03-02T15:43:35;14.70;12.50
19868;DHT22;10096;51.112;6.776;2024-03-02T15:46:06;14.50;12.00
19868;DHT22;10096;51.112;6.776;2024-03-02T15:48:33;14.50;14.80
19868;DHT22;10096;51.112;6.776;2024-03-02T15:51:05;14.70;16.90
19868;DHT22;10096;51.112;6.776;2024-03-02T15:53:32;14.60;15.30
19868;DHT22;10096;51.112;6.776;2024-03-02T15:55:59;14.50;17.10
19868;DHT22;10096;51.112;6.776;2024-03-02T15:58:27;14.70;15.40
19868;DHT22;10096;51.112;6.776;2024-03-02T16:00:58;14.60;17.20
19868;DHT22;10096;51.112;6.776;2024-03-02T16:03:30;14.50;17.60
19868;DHT22;10096;51.112;6.776;2024-03-02T16:06:05;14.60;15.80